AirNav   Jet Aviation Boston
 
 526 users online  

VA82 Mount Vernon Hospital Heliport
Alexandria, Virginia, USA

GOING TO ALEXANDRIA?


FAA INFORMATION EFFECTIVE 29 MARCH 2018

Location

FAA Identifier: VA82
Lat/Long: 38-44-25.2800N / 077-04-34.4300W
38-44.421333N / 077-04.573833W
38.7403556 / -77.0762306
(estimated)
Elevation: 38 ft. / 12 m (estimated)
Variation: 09W (1985)
From city: 4 miles S of ALEXANDRIA, VA
Time zone: UTC -4 (UTC -5 during Standard Time)
Zip code: 22306

Heliport Operations

Heliport use: Private use, MEDICAL USE.
Activation date: 03/1990
Control tower: no
ARTCC: WASHINGTON CENTER
FSS: LEESBURG FLIGHT SERVICE STATION
Attendance: MON-FRI 24 HOURS/DAY
Wind indicator: yes
Segmented circle: no

Heliport Communications

WX ASOS at DCA (7 nm N): 132.65 (703-412-8140)
WX AWOS-3 at CGS (16 nm NE): 121.225 (301-864-5497)

Nearby radio navigation aids

VOR radial/distance  VOR name  Freq  Var
DCAr204/7.4WASHINGTON VOR/DME111.0009W
ADWr258/10.6ANDREWS VORTAC113.1010W
OTTr288/15.7NOTTINGHAM VORTAC113.7010W
AMLr131/21.7ARMEL VOR/DME113.5008W
BRVr037/27.5BROOKE VORTAC114.5009W
BALr228/32.3BALTIMORE VORTAC115.1011W
CSNr087/37.4CASANOVA VORTAC116.3006W

 
NDB name  Hdg/Dist  Freq  Var  ID
OXONN247/2.833211WDCA -.. -.-. .-
DAVEE028/5.022309WDAA -.. .- .-
GEORGETOWN178/11.632309WGTN --. - -.
SHANNON042/33.423710WEZF . --.. ..-.
ELLICOTT214/35.737111WFND ..-. -. -..
GOODWIN LAKE118/37.522708WGDX --. -.. -..-

Heliport Services

Runway Information

Helipad H1

Dimensions: 75 x 75 ft. / 23 x 23 m
Surface: concrete
Latitude: 38-44.421333N
Longitude: 077-04.573833W
Elevation: 38.0 ft.
Traffic pattern: leftleft

Heliport Ownership and Management from official FAA records

Ownership: Privately-owned
Owner: MT VERNON HOSPITAL
2501 PARKERS LANE
ALEXANDRIA, VA 22306
Phone 703-664-7213
Manager: LARRY RAMSDELL
2501 PARKER'S LANE
ALEXANDRIA, VA 22306
Phone 703-664-7889

Instrument Procedures

There are no published instrument procedures at VA82.

Some nearby airports with instrument procedures:

KDAA - Davison Army Airfield (5 nm W)
KVKX - Potomac Airfield (6 nm E)
W32 - Washington Executive Airport/Hyde Field (7 nm E)
KDCA - Ronald Reagan Washington National Airport (7 nm N)
2W5 - Maryland Airport (9 nm S)
KADW - Joint Base Andrews (11 nm NE)
KCGS - College Park Airport (16 nm NE)
KNYG - Quantico Marine Corps Airfield / Turner Field (18 nm SW)
W00 - Freeway Airport (19 nm NE)
 
Loc | Ops | Rwys | IFR | FBO | Links
Com | Nav | Svcs | Stats | Notes

AirNav Hotels Sweepstakes
 
Area around VA82 (Mount Vernon Hospital Heliport)
 
Road maps at: MapQuest Bing Google
 
Aerial photo
No photo
 
Sectional chart

 
Airport distance calculator
Flying to Mount Vernon Hospital Heliport? Find the distance to fly.

From to VA82

Sunrise and sunset
Times for 26-Apr-2018
 Local
(UTC-4)
 Zulu
(UTC)
Morning civil twilight05:5009:50
Sunrise06:1810:18
Sunset19:5423:54
Evening civil twilight20:2300:23

Current date and time
Zulu (UTC)  26-Apr-2018 05:08:52
Local (UTC-4)  26-Apr-2018 01:08:52
 
METAR
KDAA 
4nm W 
260456Z AUTO 32003KT 10SM CLR 12/11 A2975 RMK AO2 SLP077 T01220108 401850117 $
KVKX 
6nm E 
SuperAWOS
260435Z AUTO 00000KT 10SM 14/12 A2974
KDCA 
7nm N 
260452Z 33010KT 10SM FEW050 16/10 A2974 RMK AO2 SLP071 T01560100 401940128
KADW 
11nm NE 
260456Z AUTO 31013G19KT 10SM CLR 15/10 A2973 RMK AO2 SLP074 T01460104 401790122 $
KCGS 
16nm NE 
260457Z AUTO 31009KT 290V350 10SM CLR 15/09 A2973 RMK AO1 T01510093
KNYG 
17nm SW 
260456Z AUTO 32007KT 10SM CLR 15/12 A2976 RMK AO2 SLP079 T01500117 401890128
TAF
KDAA 
4nm W 
260100Z 2601/2707 30006KT 8000 -SHRA FEW010 BKN070 QNH2972INS BECMG 2602/2603 30009KT 8000 -SHRA FEW030 BKN100 QNH2975INS BECMG 2605/2606 31009KT 9999 NSW FEW030 QNH2979INS BECMG 2611/2612 30012G18KT 9999 SKC QNH2987INS BECMG 2617/2618 31012KT 9999 SKC QNH2985INS BECMG 2620/2621 VRB06KT 9999 SKC QNH2985INS BECMG 2705/2706 VRB06KT 9999 FEW030 BKN070 QNH2986INS TX21/2620Z TN09/2610Z LAST NO AMDS AFT 2601 NEXT 2609
KDCA 
7nm N 
252233Z 2523/2624 31007KT P6SM BKN035 FM260200 32007KT P6SM BKN045 FM260400 32009KT P6SM SCT100 FM262000 28007KT P6SM FEW150
KADW 
11nm NE 
260100Z 2601/2707 30006KT 8000 -SHRA FEW010 BKN060 QNH2972INS BECMG 2602/2603 30009KT 8000 -SHRA FEW030 BKN100 QNH2974INS BECMG 2605/2606 31009KT 9999 NSW FEW030 QNH2977INS BECMG 2611/2612 30012G18KT 9999 SKC QNH2986INS TEMPO 2612/2615 30015G25KT BECMG 2614/2615 31012KT 9999 SKC QNH2986INS BECMG 2620/2621 VRB06KT 9999 SKC QNH2986INS BECMG 2702/2703 VRB06KT 9999 BKN150 QNH2987INS TX20/2621Z TN09/2609Z
KNYG 
17nm SW 
2603/2703 33009KT 9999 SCT040 BKN100 QNH2974INS BECMG 2608/2610 33012G20KT 9999 SCT200 QNH2982INS BECMG 2620/2622 VRB06KT 9999 SCT200 QNH2983INS T08/2609Z T20/2620Z
NOTAMs
Click for the latest NOTAMs
NOTAMs are issued by the DoD/FAA and will open in a separate window not controlled by AirNav.

 

 
 

Would you like to see your business listed on this page?

 If your business provides an interesting product or service to pilots, flight crews, aircraft, or users of the Mount Vernon Hospital Heliport, you should consider listing it here.  To start the listing process, click on the button below
 
Add a business
 

Other Pages about Mount Vernon Hospital Heliport

Update a link
 
Copyright © AirNav, LLC. All rights reserved. Privacy Policy  Contact